Terminal Aerodrome Forecast
Issued by NWS

Home | Current Version | Previous Version | Text Only | Print | Product List | Glossary On
Versions: 1 2 3 4 5 6 7 8 9 10 11 12 13 14 15
000
FTUS44 KEPZ 202300
TAFTCS
TAF
KTCS 202338Z 2100/2124 18010KT P6SM VCTS SCT040CB BKN100
      TEMPO 2100/2102 3SM TSRA BKN030CB
     FM210300 31006KT P6SM VCSH BKN050
     FM211200 32007KT P6SM BKN050
     FM211800 16010KT P6SM VCTS SCT040CB BKN100=

USA.gov is the U.S. government's official web portal to all federal, state and local government web resources and services.